sensor_id;sensor_type;location;lat;lon;timestamp;P1;durP1;ratioP1;P2;durP2;ratioP2
61907;SDS011;47864;52.526;19.672;2024-03-25T00:00:56;61.28;;;35.10;;
61907;SDS011;47864;52.526;19.672;2024-03-25T00:02:57;60.45;;;33.47;;
61907;SDS011;47864;52.526;19.672;2024-03-25T00:04:58;54.03;;;31.48;;
61907;SDS011;47864;52.526;19.672;2024-03-25T00:06:58;55.05;;;31.00;;
61907;SDS011;47864;52.526;19.672;2024-03-25T00:09:03;51.90;;;31.15;;
61907;SDS011;47864;52.526;19.672;2024-03-25T00:11:03;54.28;;;31.08;;
61907;SDS011;47864;52.526;19.672;2024-03-25T00:13:04;82.30;;;43.53;;
61907;SDS011;47864;52.526;19.672;2024-03-25T00:15:05;73.53;;;37.90;;
61907;SDS011;47864;52.526;19.672;2024-03-25T00:17:06;55.67;;;33.88;;
61907;SDS011;47864;52.526;19.672;2024-03-25T00:19:06;52.63;;;32.47;;
61907;SDS011;47864;52.526;19.672;2024-03-25T00:21:07;49.85;;;32.70;;
61907;SDS011;47864;52.526;19.672;2024-03-25T00:23:07;55.83;;;34.65;;
61907;SDS011;47864;52.526;19.672;2024-03-25T00:25:08;56.63;;;36.05;;
61907;SDS011;47864;52.526;19.672;2024-03-25T00:27:09;59.28;;;36.42;;
61907;SDS011;47864;52.526;19.672;2024-03-25T00:29:09;59.03;;;37.35;;
61907;SDS011;47864;52.526;19.672;2024-03-25T00:31:10;59.60;;;36.72;;
61907;SDS011;47864;52.526;19.672;2024-03-25T00:33:11;60.13;;;36.30;;
61907;SDS011;47864;52.526;19.672;2024-03-25T00:35:11;62.70;;;39.00;;
61907;SDS011;47864;52.526;19.672;2024-03-25T00:37:12;60.17;;;38.58;;
61907;SDS011;47864;52.526;19.672;2024-03-25T00:39:12;59.58;;;37.38;;
61907;SDS011;47864;52.526;19.672;2024-03-25T00:41:13;71.90;;;43.42;;
61907;SDS011;47864;52.526;19.672;2024-03-25T00:43:14;73.65;;;47.15;;
61907;SDS011;47864;52.526;19.672;2024-03-25T00:45:14;64.10;;;39.58;;
61907;SDS011;47864;52.526;19.672;2024-03-25T00:47:15;57.90;;;36.50;;
61907;SDS011;47864;52.526;19.672;2024-03-25T00:49:15;55.13;;;34.42;;
61907;SDS011;47864;52.526;19.672;2024-03-25T00:51:16;55.40;;;36.30;;
61907;SDS011;47864;52.526;19.672;2024-03-25T00:53:17;46.60;;;31.92;;
61907;SDS011;47864;52.526;19.672;2024-03-25T00:55:17;51.97;;;32.65;;
61907;SDS011;47864;52.526;19.672;2024-03-25T00:57:18;50.38;;;33.15;;
61907;SDS011;47864;52.526;19.672;2024-03-25T00:59:19;53.80;;;33.78;;
61907;SDS011;47864;52.526;19.672;2024-03-25T01:01:19;62.30;;;38.60;;
61907;SDS011;47864;52.526;19.672;2024-03-25T01:03:20;64.47;;;37.13;;
61907;SDS011;47864;52.526;19.672;2024-03-25T01:05:20;64.22;;;38.72;;
61907;SDS011;47864;52.526;19.672;2024-03-25T01:07:21;68.13;;;41.55;;
61907;SDS011;47864;52.526;19.672;2024-03-25T01:09:22;69.88;;;42.22;;
61907;SDS011;47864;52.526;19.672;2024-03-25T01:11:23;88.18;;;46.67;;
61907;SDS011;47864;52.526;19.672;2024-03-25T01:13:23;77.63;;;44.60;;
61907;SDS011;47864;52.526;19.672;2024-03-25T01:15:24;71.53;;;41.22;;
61907;SDS011;47864;52.526;19.672;2024-03-25T01:17:25;64.57;;;39.05;;
61907;SDS011;47864;52.526;19.672;2024-03-25T01:19:25;55.88;;;37.28;;
61907;SDS011;47864;52.526;19.672;2024-03-25T01:21:26;66.85;;;39.42;;
61907;SDS011;47864;52.526;19.672;2024-03-25T01:23:26;57.20;;;35.88;;
61907;SDS011;47864;52.526;19.672;2024-03-25T01:25:27;51.15;;;33.60;;
61907;SDS011;47864;52.526;19.672;2024-03-25T01:27:28;55.15;;;35.00;;
61907;SDS011;47864;52.526;19.672;2024-03-25T01:29:28;58.60;;;36.13;;
61907;SDS011;47864;52.526;19.672;2024-03-25T01:31:29;53.25;;;35.00;;
61907;SDS011;47864;52.526;19.672;2024-03-25T01:33:30;51.22;;;33.40;;
61907;SDS011;47864;52.526;19.672;2024-03-25T01:35:31;47.95;;;33.38;;
61907;SDS011;47864;52.526;19.672;2024-03-25T01:37:31;52.88;;;33.55;;
61907;SDS011;47864;52.526;19.672;2024-03-25T01:39:32;50.92;;;34.05;;
61907;SDS011;47864;52.526;19.672;2024-03-25T01:41:33;57.47;;;35.75;;
61907;SDS011;47864;52.526;19.672;2024-03-25T01:43:33;51.05;;;35.22;;
61907;SDS011;47864;52.526;19.672;2024-03-25T01:45:34;50.13;;;34.22;;
61907;SDS011;47864;52.526;19.672;2024-03-25T01:47:36;53.35;;;34.58;;
61907;SDS011;47864;52.526;19.672;2024-03-25T01:49:37;54.95;;;35.45;;
61907;SDS011;47864;52.526;19.672;2024-03-25T01:51:37;57.90;;;39.10;;
61907;SDS011;47864;52.526;19.672;2024-03-25T01:53:39;64.75;;;39.05;;
61907;SDS011;47864;52.526;19.672;2024-03-25T01:55:40;64.28;;;39.42;;
61907;SDS011;47864;52.526;19.672;2024-03-25T01:57:42;65.22;;;38.70;;
61907;SDS011;47864;52.526;19.672;2024-03-25T01:59:45;59.00;;;36.45;;
61907;SDS011;47864;52.526;19.672;2024-03-25T02:01:46;61.75;;;37.20;;
61907;SDS011;47864;52.526;19.672;2024-03-25T02:03:46;57.42;;;35.45;;
61907;SDS011;47864;52.526;19.672;2024-03-25T02:05:49;58.53;;;37.22;;
61907;SDS011;47864;52.526;19.672;2024-03-25T02:07:53;61.65;;;36.78;;
61907;SDS011;47864;52.526;19.672;2024-03-25T02:09:54;58.78;;;36.83;;
61907;SDS011;47864;52.526;19.672;2024-03-25T02:11:55;53.53;;;34.45;;
61907;SDS011;47864;52.526;19.672;2024-03-25T02:13:56;52.35;;;33.60;;
61907;SDS011;47864;52.526;19.672;2024-03-25T02:15:57;50.92;;;33.78;;
61907;SDS011;47864;52.526;19.672;2024-03-25T02:17:58;49.75;;;34.42;;
61907;SDS011;47864;52.526;19.672;2024-03-25T02:19:58;49.55;;;32.35;;
61907;SDS011;47864;52.526;19.672;2024-03-25T02:21:59;53.42;;;33.42;;
61907;SDS011;47864;52.526;19.672;2024-03-25T02:24:00;56.05;;;31.65;;
61907;SDS011;47864;52.526;19.672;2024-03-25T02:26:05;49.05;;;32.75;;
61907;SDS011;47864;52.526;19.672;2024-03-25T02:28:06;48.40;;;30.83;;
61907;SDS011;47864;52.526;19.672;2024-03-25T02:30:10;51.47;;;30.52;;
61907;SDS011;47864;52.526;19.672;2024-03-25T02:32:12;48.45;;;30.95;;
61907;SDS011;47864;52.526;19.672;2024-03-25T02:34:12;44.92;;;29.33;;
61907;SDS011;47864;52.526;19.672;2024-03-25T02:36:13;40.00;;;27.67;;
61907;SDS011;47864;52.526;19.672;2024-03-25T02:38:13;40.70;;;27.05;;
61907;SDS011;47864;52.526;19.672;2024-03-25T02:40:14;43.53;;;28.95;;
61907;SDS011;47864;52.526;19.672;2024-03-25T02:42:15;42.45;;;27.65;;
61907;SDS011;47864;52.526;19.672;2024-03-25T02:44:16;41.53;;;28.98;;
61907;SDS011;47864;52.526;19.672;2024-03-25T02:46:16;36.90;;;26.42;;
61907;SDS011;47864;52.526;19.672;2024-03-25T02:48:17;41.63;;;26.25;;
61907;SDS011;47864;52.526;19.672;2024-03-25T02:50:18;38.75;;;26.48;;
61907;SDS011;47864;52.526;19.672;2024-03-25T02:52:19;42.97;;;28.60;;
61907;SDS011;47864;52.526;19.672;2024-03-25T02:54:20;37.53;;;26.20;;
61907;SDS011;47864;52.526;19.672;2024-03-25T02:56:21;41.38;;;27.92;;
61907;SDS011;47864;52.526;19.672;2024-03-25T02:58:21;38.42;;;26.55;;
61907;SDS011;47864;52.526;19.672;2024-03-25T03:00:22;46.83;;;29.48;;
61907;SDS011;47864;52.526;19.672;2024-03-25T03:02:22;35.63;;;25.77;;
61907;SDS011;47864;52.526;19.672;2024-03-25T03:04:23;48.97;;;30.15;;
61907;SDS011;47864;52.526;19.672;2024-03-25T03:06:24;39.15;;;26.75;;
61907;SDS011;47864;52.526;19.672;2024-03-25T03:08:24;39.88;;;26.77;;
61907;SDS011;47864;52.526;19.672;2024-03-25T03:10:25;36.85;;;26.83;;
61907;SDS011;47864;52.526;19.672;2024-03-25T03:12:26;39.30;;;27.10;;
61907;SDS011;47864;52.526;19.672;2024-03-25T03:14:26;41.10;;;26.13;;
61907;SDS011;47864;52.526;19.672;2024-03-25T03:16:27;38.88;;;25.75;;
61907;SDS011;47864;52.526;19.672;2024-03-25T03:18:28;35.13;;;24.45;;
61907;SDS011;47864;52.526;19.672;2024-03-25T03:20:28;37.90;;;25.95;;
61907;SDS011;47864;52.526;19.672;2024-03-25T03:22:29;41.00;;;27.02;;
61907;SDS011;47864;52.526;19.672;2024-03-25T03:24:29;39.63;;;27.55;;
61907;SDS011;47864;52.526;19.672;2024-03-25T03:26:30;51.75;;;35.25;;
61907;SDS011;47864;52.526;19.672;2024-03-25T03:28:31;39.70;;;29.58;;
61907;SDS011;47864;52.526;19.672;2024-03-25T03:30:31;43.63;;;29.73;;
61907;SDS011;47864;52.526;19.672;2024-03-25T03:32:32;41.83;;;30.15;;
61907;SDS011;47864;52.526;19.672;2024-03-25T03:34:33;46.65;;;30.17;;
61907;SDS011;47864;52.526;19.672;2024-03-25T03:36:33;39.90;;;25.85;;
61907;SDS011;47864;52.526;19.672;2024-03-25T03:38:34;40.50;;;27.75;;
61907;SDS011;47864;52.526;19.672;2024-03-25T03:40:34;41.25;;;28.13;;
61907;SDS011;47864;52.526;19.672;2024-03-25T03:42:35;39.47;;;26.55;;
61907;SDS011;47864;52.526;19.672;2024-03-25T03:44:35;39.78;;;25.45;;
61907;SDS011;47864;52.526;19.672;2024-03-25T03:46:36;33.85;;;24.23;;
61907;SDS011;47864;52.526;19.672;2024-03-25T03:48:37;36.30;;;23.35;;
61907;SDS011;47864;52.526;19.672;2024-03-25T03:50:38;37.53;;;24.77;;
61907;SDS011;47864;52.526;19.672;2024-03-25T03:52:38;38.10;;;24.63;;
61907;SDS011;47864;52.526;19.672;2024-03-25T03:54:39;32.25;;;23.48;;
61907;SDS011;47864;52.526;19.672;2024-03-25T03:56:40;32.65;;;21.65;;
61907;SDS011;47864;52.526;19.672;2024-03-25T03:58:40;34.22;;;22.10;;
61907;SDS011;47864;52.526;19.672;2024-03-25T04:00:41;29.42;;;20.23;;
61907;SDS011;47864;52.526;19.672;2024-03-25T04:02:41;32.47;;;21.70;;
61907;SDS011;47864;52.526;19.672;2024-03-25T04:04:42;34.30;;;22.92;;
61907;SDS011;47864;52.526;19.672;2024-03-25T04:06:43;29.60;;;20.58;;
61907;SDS011;47864;52.526;19.672;2024-03-25T04:08:43;29.48;;;20.88;;
61907;SDS011;47864;52.526;19.672;2024-03-25T04:10:44;32.15;;;20.48;;
61907;SDS011;47864;52.526;19.672;2024-03-25T04:12:45;29.45;;;20.10;;
61907;SDS011;47864;52.526;19.672;2024-03-25T04:14:46;32.97;;;20.90;;
61907;SDS011;47864;52.526;19.672;2024-03-25T04:16:47;31.65;;;20.83;;
61907;SDS011;47864;52.526;19.672;2024-03-25T04:18:48;32.47;;;21.27;;
61907;SDS011;47864;52.526;19.672;2024-03-25T04:20:48;43.33;;;24.25;;
61907;SDS011;47864;52.526;19.672;2024-03-25T04:22:49;36.47;;;22.50;;
61907;SDS011;47864;52.526;19.672;2024-03-25T04:24:49;36.72;;;22.83;;
61907;SDS011;47864;52.526;19.672;2024-03-25T04:26:50;40.65;;;23.70;;
61907;SDS011;47864;52.526;19.672;2024-03-25T04:28:51;35.03;;;23.23;;
61907;SDS011;47864;52.526;19.672;2024-03-25T04:30:54;35.65;;;24.42;;
61907;SDS011;47864;52.526;19.672;2024-03-25T04:32:54;33.20;;;23.08;;
61907;SDS011;47864;52.526;19.672;2024-03-25T04:34:55;32.42;;;21.85;;
61907;SDS011;47864;52.526;19.672;2024-03-25T04:36:56;33.58;;;23.48;;
61907;SDS011;47864;52.526;19.672;2024-03-25T04:38:57;34.42;;;23.23;;
61907;SDS011;47864;52.526;19.672;2024-03-25T04:40:57;39.35;;;24.90;;
61907;SDS011;47864;52.526;19.672;2024-03-25T04:42:58;34.63;;;22.73;;
61907;SDS011;47864;52.526;19.672;2024-03-25T04:44:58;34.95;;;22.85;;
61907;SDS011;47864;52.526;19.672;2024-03-25T04:46:59;36.15;;;22.92;;
61907;SDS011;47864;52.526;19.672;2024-03-25T04:49:00;35.50;;;22.83;;
61907;SDS011;47864;52.526;19.672;2024-03-25T04:51:00;31.25;;;20.35;;
61907;SDS011;47864;52.526;19.672;2024-03-25T04:53:01;31.42;;;20.65;;
61907;SDS011;47864;52.526;19.672;2024-03-25T04:55:02;29.15;;;20.52;;
61907;SDS011;47864;52.526;19.672;2024-03-25T04:57:02;28.23;;;20.02;;
61907;SDS011;47864;52.526;19.672;2024-03-25T04:59:03;30.38;;;19.95;;
61907;SDS011;47864;52.526;19.672;2024-03-25T05:01:04;28.90;;;19.25;;
61907;SDS011;47864;52.526;19.672;2024-03-25T05:03:05;28.10;;;18.98;;
61907;SDS011;47864;52.526;19.672;2024-03-25T05:05:05;30.05;;;19.45;;
61907;SDS011;47864;52.526;19.672;2024-03-25T05:07:06;32.10;;;20.08;;
61907;SDS011;47864;52.526;19.672;2024-03-25T05:09:07;34.53;;;20.38;;
61907;SDS011;47864;52.526;19.672;2024-03-25T05:11:07;29.08;;;18.98;;
61907;SDS011;47864;52.526;19.672;2024-03-25T05:13:08;28.02;;;19.25;;
61907;SDS011;47864;52.526;19.672;2024-03-25T05:15:09;29.95;;;18.30;;
61907;SDS011;47864;52.526;19.672;2024-03-25T05:17:09;26.60;;;18.33;;
61907;SDS011;47864;52.526;19.672;2024-03-25T05:19:10;29.85;;;18.77;;
61907;SDS011;47864;52.526;19.672;2024-03-25T05:21:10;28.80;;;18.23;;
61907;SDS011;47864;52.526;19.672;2024-03-25T05:23:11;31.15;;;19.50;;
61907;SDS011;47864;52.526;19.672;2024-03-25T05:25:12;34.53;;;20.13;;
61907;SDS011;47864;52.526;19.672;2024-03-25T05:27:13;32.50;;;18.58;;
61907;SDS011;47864;52.526;19.672;2024-03-25T05:29:13;35.20;;;21.58;;
61907;SDS011;47864;52.526;19.672;2024-03-25T05:31:14;32.88;;;18.88;;
61907;SDS011;47864;52.526;19.672;2024-03-25T05:33:14;30.05;;;19.50;;
61907;SDS011;47864;52.526;19.672;2024-03-25T05:35:15;31.13;;;19.75;;
61907;SDS011;47864;52.526;19.672;2024-03-25T05:37:16;28.40;;;19.00;;
61907;SDS011;47864;52.526;19.672;2024-03-25T05:39:16;28.45;;;18.75;;
61907;SDS011;47864;52.526;19.672;2024-03-25T05:41:17;29.52;;;19.90;;
61907;SDS011;47864;52.526;19.672;2024-03-25T05:43:18;34.72;;;19.55;;
61907;SDS011;47864;52.526;19.672;2024-03-25T05:45:19;29.20;;;18.88;;
61907;SDS011;47864;52.526;19.672;2024-03-25T05:47:19;40.42;;;25.02;;
61907;SDS011;47864;52.526;19.672;2024-03-25T05:49:20;45.95;;;28.75;;
61907;SDS011;47864;52.526;19.672;2024-03-25T05:51:20;37.40;;;24.00;;
61907;SDS011;47864;52.526;19.672;2024-03-25T05:53:21;38.97;;;23.58;;
61907;SDS011;47864;52.526;19.672;2024-03-25T05:55:22;33.42;;;20.70;;
61907;SDS011;47864;52.526;19.672;2024-03-25T05:57:22;29.13;;;19.65;;
61907;SDS011;47864;52.526;19.672;2024-03-25T05:59:23;30.92;;;18.75;;
61907;SDS011;47864;52.526;19.672;2024-03-25T06:01:23;27.15;;;18.33;;
61907;SDS011;47864;52.526;19.672;2024-03-25T06:03:24;25.95;;;18.55;;
61907;SDS011;47864;52.526;19.672;2024-03-25T06:05:25;24.13;;;16.75;;
61907;SDS011;47864;52.526;19.672;2024-03-25T06:07:25;23.92;;;15.32;;
61907;SDS011;47864;52.526;19.672;2024-03-25T06:09:26;22.00;;;13.75;;
61907;SDS011;47864;52.526;19.672;2024-03-25T06:11:26;24.58;;;15.77;;
61907;SDS011;47864;52.526;19.672;2024-03-25T06:13:27;23.60;;;16.10;;
61907;SDS011;47864;52.526;19.672;2024-03-25T06:15:27;22.33;;;14.93;;
61907;SDS011;47864;52.526;19.672;2024-03-25T06:17:28;23.00;;;15.52;;
61907;SDS011;47864;52.526;19.672;2024-03-25T06:19:29;20.70;;;13.60;;
61907;SDS011;47864;52.526;19.672;2024-03-25T06:21:29;20.25;;;13.38;;
61907;SDS011;47864;52.526;19.672;2024-03-25T06:23:30;20.38;;;14.68;;
61907;SDS011;47864;52.526;19.672;2024-03-25T06:25:31;20.80;;;12.73;;
61907;SDS011;47864;52.526;19.672;2024-03-25T06:27:31;21.80;;;12.98;;
61907;SDS011;47864;52.526;19.672;2024-03-25T06:29:32;18.23;;;12.48;;
61907;SDS011;47864;52.526;19.672;2024-03-25T06:31:32;19.45;;;12.40;;
61907;SDS011;47864;52.526;19.672;2024-03-25T06:33:33;20.75;;;14.27;;
61907;SDS011;47864;52.526;19.672;2024-03-25T06:35:34;21.48;;;12.57;;
61907;SDS011;47864;52.526;19.672;2024-03-25T06:37:35;18.83;;;12.10;;
61907;SDS011;47864;52.526;19.672;2024-03-25T06:39:35;18.10;;;12.77;;
61907;SDS011;47864;52.526;19.672;2024-03-25T06:41:36;17.20;;;12.05;;
61907;SDS011;47864;52.526;19.672;2024-03-25T06:43:37;18.63;;;11.45;;
61907;SDS011;47864;52.526;19.672;2024-03-25T06:45:38;17.55;;;11.18;;
61907;SDS011;47864;52.526;19.672;2024-03-25T06:47:39;21.20;;;11.57;;
61907;SDS011;47864;52.526;19.672;2024-03-25T06:49:39;17.42;;;11.35;;
61907;SDS011;47864;52.526;19.672;2024-03-25T06:51:40;18.85;;;11.98;;
61907;SDS011;47864;52.526;19.672;2024-03-25T06:53:40;17.55;;;10.98;;
61907;SDS011;47864;52.526;19.672;2024-03-25T06:55:41;15.70;;;10.95;;
61907;SDS011;47864;52.526;19.672;2024-03-25T06:57:41;17.38;;;10.80;;
61907;SDS011;47864;52.526;19.672;2024-03-25T06:59:42;17.45;;;10.38;;
61907;SDS011;47864;52.526;19.672;2024-03-25T07:01:43;16.88;;;10.88;;
61907;SDS011;47864;52.526;19.672;2024-03-25T07:03:43;17.00;;;10.80;;
61907;SDS011;47864;52.526;19.672;2024-03-25T07:05:51;16.23;;;11.15;;
61907;SDS011;47864;52.526;19.672;2024-03-25T07:07:51;15.75;;;10.48;;
61907;SDS011;47864;52.526;19.672;2024-03-25T07:09:52;15.80;;;10.68;;
61907;SDS011;47864;52.526;19.672;2024-03-25T07:11:53;20.60;;;11.60;;
61907;SDS011;47864;52.526;19.672;2024-03-25T07:13:54;17.23;;;11.45;;
61907;SDS011;47864;52.526;19.672;2024-03-25T07:15:55;16.92;;;10.07;;
61907;SDS011;47864;52.526;19.672;2024-03-25T07:17:57;17.63;;;10.65;;
61907;SDS011;47864;52.526;19.672;2024-03-25T07:19:57;14.88;;;10.43;;
61907;SDS011;47864;52.526;19.672;2024-03-25T07:21:58;16.67;;;11.07;;
61907;SDS011;47864;52.526;19.672;2024-03-25T07:23:58;16.90;;;11.82;;
61907;SDS011;47864;52.526;19.672;2024-03-25T07:25:59;19.42;;;11.95;;
61907;SDS011;47864;52.526;19.672;2024-03-25T07:28:00;18.00;;;10.77;;
61907;SDS011;47864;52.526;19.672;2024-03-25T07:30:01;14.63;;;11.18;;
61907;SDS011;47864;52.526;19.672;2024-03-25T07:32:01;16.40;;;10.82;;
61907;SDS011;47864;52.526;19.672;2024-03-25T07:34:02;16.75;;;11.23;;
61907;SDS011;47864;52.526;19.672;2024-03-25T07:36:03;18.45;;;10.73;;
61907;SDS011;47864;52.526;19.672;2024-03-25T07:38:03;17.13;;;11.57;;
61907;SDS011;47864;52.526;19.672;2024-03-25T07:40:04;14.65;;;10.25;;
61907;SDS011;47864;52.526;19.672;2024-03-25T07:42:05;15.00;;;9.80;;
61907;SDS011;47864;52.526;19.672;2024-03-25T07:44:06;14.70;;;10.55;;
61907;SDS011;47864;52.526;19.672;2024-03-25T07:46:07;15.82;;;10.10;;
61907;SDS011;47864;52.526;19.672;2024-03-25T07:48:07;12.48;;;9.60;;
61907;SDS011;47864;52.526;19.672;2024-03-25T07:50:08;14.82;;;9.43;;
61907;SDS011;47864;52.526;19.672;2024-03-25T07:52:09;27.80;;;11.32;;
61907;SDS011;47864;52.526;19.672;2024-03-25T07:54:09;14.63;;;9.80;;
61907;SDS011;47864;52.526;19.672;2024-03-25T07:56:10;14.65;;;9.52;;
61907;SDS011;47864;52.526;19.672;2024-03-25T07:58:11;12.98;;;8.95;;
61907;SDS011;47864;52.526;19.672;2024-03-25T08:00:11;12.85;;;9.18;;
61907;SDS011;47864;52.526;19.672;2024-03-25T08:02:12;14.57;;;9.63;;
61907;SDS011;47864;52.526;19.672;2024-03-25T08:04:13;11.52;;;9.32;;
61907;SDS011;47864;52.526;19.672;2024-03-25T08:06:14;12.88;;;9.10;;
61907;SDS011;47864;52.526;19.672;2024-03-25T08:08:14;20.75;;;15.80;;
61907;SDS011;47864;52.526;19.672;2024-03-25T08:10:15;15.30;;;11.20;;
61907;SDS011;47864;52.526;19.672;2024-03-25T08:12:16;15.15;;;10.68;;
61907;SDS011;47864;52.526;19.672;2024-03-25T08:14:16;23.58;;;16.23;;
61907;SDS011;47864;52.526;19.672;2024-03-25T08:16:17;19.70;;;15.63;;
61907;SDS011;47864;52.526;19.672;2024-03-25T08:18:18;14.93;;;10.80;;
61907;SDS011;47864;52.526;19.672;2024-03-25T08:20:18;14.20;;;10.35;;
61907;SDS011;47864;52.526;19.672;2024-03-25T08:22:19;12.63;;;9.43;;
61907;SDS011;47864;52.526;19.672;2024-03-25T08:24:20;13.10;;;10.15;;
61907;SDS011;47864;52.526;19.672;2024-03-25T08:26:20;20.63;;;14.90;;
61907;SDS011;47864;52.526;19.672;2024-03-25T08:28:21;15.48;;;11.18;;
61907;SDS011;47864;52.526;19.672;2024-03-25T08:30:21;13.20;;;10.48;;
61907;SDS011;47864;52.526;19.672;2024-03-25T08:32:22;14.13;;;10.75;;
61907;SDS011;47864;52.526;19.672;2024-03-25T08:34:22;12.73;;;9.30;;
61907;SDS011;47864;52.526;19.672;2024-03-25T08:36:23;13.80;;;10.00;;
61907;SDS011;47864;52.526;19.672;2024-03-25T08:38:24;16.63;;;10.80;;
61907;SDS011;47864;52.526;19.672;2024-03-25T08:40:24;11.68;;;9.38;;
61907;SDS011;47864;52.526;19.672;2024-03-25T08:42:25;15.45;;;10.15;;
61907;SDS011;47864;52.526;19.672;2024-03-25T08:44:25;13.07;;;10.07;;
61907;SDS011;47864;52.526;19.672;2024-03-25T08:46:26;19.08;;;14.48;;
61907;SDS011;47864;52.526;19.672;2024-03-25T08:48:27;20.13;;;13.90;;
61907;SDS011;47864;52.526;19.672;2024-03-25T08:50:27;25.23;;;16.23;;
61907;SDS011;47864;52.526;19.672;2024-03-25T08:52:28;22.00;;;14.48;;
61907;SDS011;47864;52.526;19.672;2024-03-25T08:54:29;34.03;;;20.90;;
61907;SDS011;47864;52.526;19.672;2024-03-25T08:56:29;28.90;;;17.15;;
61907;SDS011;47864;52.526;19.672;2024-03-25T08:58:30;34.78;;;22.10;;
61907;SDS011;47864;52.526;19.672;2024-03-25T09:00:31;24.77;;;17.45;;
61907;SDS011;47864;52.526;19.672;2024-03-25T09:02:31;16.02;;;12.05;;
61907;SDS011;47864;52.526;19.672;2024-03-25T09:04:32;13.65;;;9.02;;
61907;SDS011;47864;52.526;19.672;2024-03-25T09:06:32;19.52;;;12.20;;
61907;SDS011;47864;52.526;19.672;2024-03-25T09:08:33;12.70;;;10.68;;
61907;SDS011;47864;52.526;19.672;2024-03-25T09:10:34;11.95;;;8.60;;
61907;SDS011;47864;52.526;19.672;2024-03-25T09:12:34;11.40;;;9.32;;
61907;SDS011;47864;52.526;19.672;2024-03-25T09:14:35;11.73;;;7.38;;
61907;SDS011;47864;52.526;19.672;2024-03-25T09:16:36;9.50;;;6.82;;
61907;SDS011;47864;52.526;19.672;2024-03-25T09:18:36;7.45;;;5.32;;
61907;SDS011;47864;52.526;19.672;2024-03-25T09:20:37;8.27;;;5.60;;
61907;SDS011;47864;52.526;19.672;2024-03-25T09:22:37;7.93;;;5.50;;
61907;SDS011;47864;52.526;19.672;2024-03-25T09:24:38;7.90;;;5.13;;
61907;SDS011;47864;52.526;19.672;2024-03-25T09:26:39;5.97;;;4.60;;
61907;SDS011;47864;52.526;19.672;2024-03-25T09:28:39;5.97;;;4.45;;
61907;SDS011;47864;52.526;19.672;2024-03-25T09:30:40;5.75;;;4.63;;
61907;SDS011;47864;52.526;19.672;2024-03-25T09:32:41;5.72;;;4.18;;
61907;SDS011;47864;52.526;19.672;2024-03-25T09:34:42;7.85;;;6.38;;
61907;SDS011;47864;52.526;19.672;2024-03-25T09:36:42;10.57;;;6.18;;
61907;SDS011;47864;52.526;19.672;2024-03-25T09:38:43;6.75;;;4.93;;
61907;SDS011;47864;52.526;19.672;2024-03-25T09:40:43;6.68;;;5.00;;
61907;SDS011;47864;52.526;19.672;2024-03-25T09:44:48;5.32;;;4.78;;
61907;SDS011;47864;52.526;19.672;2024-03-25T09:46:49;6.60;;;5.00;;
61907;SDS011;47864;52.526;19.672;2024-03-25T09:48:51;8.95;;;6.50;;
61907;SDS011;47864;52.526;19.672;2024-03-25T09:50:53;7.55;;;5.40;;
61907;SDS011;47864;52.526;19.672;2024-03-25T09:52:54;6.90;;;4.68;;
61907;SDS011;47864;52.526;19.672;2024-03-25T09:54:54;5.82;;;4.30;;
61907;SDS011;47864;52.526;19.672;2024-03-25T09:56:55;8.70;;;7.70;;
61907;SDS011;47864;52.526;19.672;2024-03-25T09:58:56;6.28;;;5.68;;
61907;SDS011;47864;52.526;19.672;2024-03-25T10:00:57;8.05;;;6.53;;
61907;SDS011;47864;52.526;19.672;2024-03-25T10:02:58;6.32;;;4.93;;
61907;SDS011;47864;52.526;19.672;2024-03-25T10:04:59;6.47;;;5.22;;
61907;SDS011;47864;52.526;19.672;2024-03-25T10:07:00;7.40;;;5.50;;
61907;SDS011;47864;52.526;19.672;2024-03-25T10:09:03;6.80;;;5.28;;
61907;SDS011;47864;52.526;19.672;2024-03-25T10:11:05;10.98;;;7.15;;
61907;SDS011;47864;52.526;19.672;2024-03-25T10:13:05;10.80;;;7.20;;
61907;SDS011;47864;52.526;19.672;2024-03-25T10:15:06;8.70;;;5.90;;
61907;SDS011;47864;52.526;19.672;2024-03-25T10:17:07;7.38;;;5.35;;
61907;SDS011;47864;52.526;19.672;2024-03-25T10:19:08;9.02;;;6.55;;
61907;SDS011;47864;52.526;19.672;2024-03-25T10:21:09;9.48;;;7.57;;
61907;SDS011;47864;52.526;19.672;2024-03-25T10:23:10;8.30;;;6.03;;
61907;SDS011;47864;52.526;19.672;2024-03-25T10:25:21;6.13;;;4.70;;
61907;SDS011;47864;52.526;19.672;2024-03-25T10:27:22;6.60;;;5.63;;
61907;SDS011;47864;52.526;19.672;2024-03-25T10:29:24;26.40;;;18.77;;
61907;SDS011;47864;52.526;19.672;2024-03-25T10:31:25;8.23;;;6.63;;
61907;SDS011;47864;52.526;19.672;2024-03-25T10:33:26;12.75;;;10.00;;
61907;SDS011;47864;52.526;19.672;2024-03-25T10:35:27;7.75;;;6.72;;
61907;SDS011;47864;52.526;19.672;2024-03-25T10:37:29;7.25;;;6.55;;
61907;SDS011;47864;52.526;19.672;2024-03-25T10:39:30;7.90;;;6.65;;
61907;SDS011;47864;52.526;19.672;2024-03-25T10:41:32;8.27;;;6.40;;
61907;SDS011;47864;52.526;19.672;2024-03-25T10:43:34;11.23;;;8.07;;
61907;SDS011;47864;52.526;19.672;2024-03-25T10:45:38;166.47;;;18.40;;
61907;SDS011;47864;52.526;19.672;2024-03-25T10:47:42;18.17;;;10.88;;
61907;SDS011;47864;52.526;19.672;2024-03-25T10:49:58;11.68;;;9.25;;
61907;SDS011;47864;52.526;19.672;2024-03-25T10:52:03;12.63;;;8.40;;
61907;SDS011;47864;52.526;19.672;2024-03-25T10:54:05;11.63;;;8.90;;
61907;SDS011;47864;52.526;19.672;2024-03-25T10:56:06;10.65;;;8.48;;
61907;SDS011;47864;52.526;19.672;2024-03-25T10:58:08;15.73;;;11.20;;
61907;SDS011;47864;52.526;19.672;2024-03-25T11:00:09;15.63;;;10.77;;
61907;SDS011;47864;52.526;19.672;2024-03-25T11:02:11;11.68;;;8.75;;
61907;SDS011;47864;52.526;19.672;2024-03-25T11:04:12;14.57;;;10.68;;
61907;SDS011;47864;52.526;19.672;2024-03-25T11:06:14;7.35;;;6.25;;
61907;SDS011;47864;52.526;19.672;2024-03-25T11:08:16;5.88;;;5.00;;
61907;SDS011;47864;52.526;19.672;2024-03-25T11:10:17;9.85;;;7.10;;
61907;SDS011;47864;52.526;19.672;2024-03-25T11:12:17;48.08;;;24.08;;
61907;SDS011;47864;52.526;19.672;2024-03-25T11:14:18;31.08;;;17.42;;
61907;SDS011;47864;52.526;19.672;2024-03-25T11:16:31;6.82;;;5.38;;
61907;SDS011;47864;52.526;19.672;2024-03-25T11:18:32;6.18;;;4.55;;
61907;SDS011;47864;52.526;19.672;2024-03-25T11:20:33;4.93;;;4.07;;
61907;SDS011;47864;52.526;19.672;2024-03-25T11:22:34;7.95;;;4.63;;
61907;SDS011;47864;52.526;19.672;2024-03-25T11:24:34;5.28;;;4.57;;
61907;SDS011;47864;52.526;19.672;2024-03-25T11:26:40;12.48;;;7.47;;
61907;SDS011;47864;52.526;19.672;2024-03-25T11:28:41;22.15;;;10.60;;
61907;SDS011;47864;52.526;19.672;2024-03-25T11:30:42;37.10;;;18.20;;
61907;SDS011;47864;52.526;19.672;2024-03-25T11:32:46;11.68;;;8.10;;
61907;SDS011;47864;52.526;19.672;2024-03-25T11:34:52;7.95;;;5.70;;
61907;SDS011;47864;52.526;19.672;2024-03-25T11:36:52;33.65;;;17.73;;
61907;SDS011;47864;52.526;19.672;2024-03-25T11:39:00;20.50;;;13.73;;
61907;SDS011;47864;52.526;19.672;2024-03-25T11:41:01;13.57;;;9.57;;
61907;SDS011;47864;52.526;19.672;2024-03-25T11:43:02;13.93;;;8.27;;